sensor_id;sensor_type;location;lat;lon;timestamp;P1;durP1;ratioP1;P2;durP2;ratioP2
70733;SDS011;58320;48.804;9.252;2023-06-14T00:00:51;7.10;;;4.93;;
70733;SDS011;58320;48.804;9.252;2023-06-14T00:03:18;7.17;;;4.23;;
70733;SDS011;58320;48.804;9.252;2023-06-14T00:05:47;7.10;;;4.00;;
70733;SDS011;58320;48.804;9.252;2023-06-14T00:08:13;8.25;;;4.90;;
70733;SDS011;58320;48.804;9.252;2023-06-14T00:10:39;8.52;;;4.40;;
70733;SDS011;58320;48.804;9.252;2023-06-14T00:13:07;7.05;;;4.40;;
70733;SDS011;58320;48.804;9.252;2023-06-14T00:15:34;7.00;;;4.30;;
70733;SDS011;58320;48.804;9.252;2023-06-14T00:18:00;12.45;;;4.80;;
70733;SDS011;58320;48.804;9.252;2023-06-14T00:20:30;6.55;;;4.47;;
70733;SDS011;58320;48.804;9.252;2023-06-14T00:23:00;7.22;;;4.90;;
70733;SDS011;58320;48.804;9.252;2023-06-14T00:25:27;7.60;;;4.65;;
70733;SDS011;58320;48.804;9.252;2023-06-14T00:27:54;7.03;;;4.83;;
70733;SDS011;58320;48.804;9.252;2023-06-14T00:30:20;7.85;;;4.93;;
70733;SDS011;58320;48.804;9.252;2023-06-14T00:32:46;7.22;;;4.82;;
70733;SDS011;58320;48.804;9.252;2023-06-14T00:35:12;6.65;;;4.43;;
70733;SDS011;58320;48.804;9.252;2023-06-14T00:37:38;8.30;;;5.23;;
70733;SDS011;58320;48.804;9.252;2023-06-14T00:40:05;8.23;;;5.00;;
70733;SDS011;58320;48.804;9.252;2023-06-14T00:42:31;9.43;;;5.28;;
70733;SDS011;58320;48.804;9.252;2023-06-14T00:44:59;8.10;;;4.43;;
70733;SDS011;58320;48.804;9.252;2023-06-14T00:47:25;7.10;;;4.55;;
70733;SDS011;58320;48.804;9.252;2023-06-14T00:49:52;6.93;;;4.87;;
70733;SDS011;58320;48.804;9.252;2023-06-14T00:52:20;8.43;;;4.82;;
70733;SDS011;58320;48.804;9.252;2023-06-14T00:54:49;9.57;;;5.03;;
70733;SDS011;58320;48.804;9.252;2023-06-14T00:57:15;7.72;;;5.15;;
70733;SDS011;58320;48.804;9.252;2023-06-14T00:59:42;9.85;;;5.47;;
70733;SDS011;58320;48.804;9.252;2023-06-14T01:02:12;7.27;;;5.37;;
70733;SDS011;58320;48.804;9.252;2023-06-14T01:04:43;10.98;;;5.53;;
70733;SDS011;58320;48.804;9.252;2023-06-14T01:07:18;7.65;;;5.10;;
70733;SDS011;58320;48.804;9.252;2023-06-14T01:15:55;9.53;;;5.07;;
70733;SDS011;58320;48.804;9.252;2023-06-14T01:18:22;10.52;;;5.18;;
70733;SDS011;58320;48.804;9.252;2023-06-14T01:20:49;7.55;;;4.50;;
70733;SDS011;58320;48.804;9.252;2023-06-14T01:23:18;8.77;;;5.38;;
70733;SDS011;58320;48.804;9.252;2023-06-14T01:25:47;8.30;;;5.10;;
70733;SDS011;58320;48.804;9.252;2023-06-14T01:28:17;6.70;;;5.17;;
70733;SDS011;58320;48.804;9.252;2023-06-14T01:30:46;7.57;;;5.13;;
70733;SDS011;58320;48.804;9.252;2023-06-14T01:33:19;8.85;;;5.68;;
70733;SDS011;58320;48.804;9.252;2023-06-14T01:35:47;9.30;;;6.05;;
70733;SDS011;58320;48.804;9.252;2023-06-14T01:38:20;11.35;;;6.35;;
70733;SDS011;58320;48.804;9.252;2023-06-14T01:40:49;10.17;;;5.20;;
70733;SDS011;58320;48.804;9.252;2023-06-14T01:43:17;7.95;;;5.43;;
70733;SDS011;58320;48.804;9.252;2023-06-14T01:45:44;10.20;;;6.20;;
70733;SDS011;58320;48.804;9.252;2023-06-14T01:48:13;9.60;;;6.05;;
70733;SDS011;58320;48.804;9.252;2023-06-14T01:50:40;10.05;;;6.75;;
70733;SDS011;58320;48.804;9.252;2023-06-14T01:53:09;10.40;;;6.50;;
70733;SDS011;58320;48.804;9.252;2023-06-14T01:55:36;9.52;;;6.18;;
70733;SDS011;58320;48.804;9.252;2023-06-14T01:58:05;12.05;;;6.30;;
70733;SDS011;58320;48.804;9.252;2023-06-14T02:00:31;9.40;;;6.10;;
70733;SDS011;58320;48.804;9.252;2023-06-14T02:02:57;10.87;;;6.20;;
70733;SDS011;58320;48.804;9.252;2023-06-14T02:05:24;9.68;;;6.13;;
70733;SDS011;58320;48.804;9.252;2023-06-14T02:07:50;9.90;;;5.75;;
70733;SDS011;58320;48.804;9.252;2023-06-14T02:10:15;7.57;;;5.70;;
70733;SDS011;58320;48.804;9.252;2023-06-14T02:12:42;9.27;;;5.90;;
70733;SDS011;58320;48.804;9.252;2023-06-14T02:15:09;8.27;;;5.55;;
70733;SDS011;58320;48.804;9.252;2023-06-14T02:17:41;9.70;;;5.65;;
70733;SDS011;58320;48.804;9.252;2023-06-14T02:20:08;9.52;;;5.47;;
70733;SDS011;58320;48.804;9.252;2023-06-14T02:22:34;10.07;;;5.67;;
70733;SDS011;58320;48.804;9.252;2023-06-14T02:25:00;10.45;;;5.60;;
70733;SDS011;58320;48.804;9.252;2023-06-14T02:27:26;12.77;;;6.00;;
70733;SDS011;58320;48.804;9.252;2023-06-14T02:29:51;8.23;;;5.37;;
70733;SDS011;58320;48.804;9.252;2023-06-14T02:32:17;8.65;;;5.32;;
70733;SDS011;58320;48.804;9.252;2023-06-14T02:34:43;9.18;;;6.10;;
70733;SDS011;58320;48.804;9.252;2023-06-14T02:37:09;8.30;;;5.60;;
70733;SDS011;58320;48.804;9.252;2023-06-14T02:39:36;9.88;;;6.05;;
70733;SDS011;58320;48.804;9.252;2023-06-14T02:42:02;8.05;;;5.97;;
70733;SDS011;58320;48.804;9.252;2023-06-14T02:44:27;9.33;;;6.07;;
70733;SDS011;58320;48.804;9.252;2023-06-14T02:46:54;8.30;;;5.72;;
70733;SDS011;58320;48.804;9.252;2023-06-14T02:49:21;7.88;;;5.30;;
70733;SDS011;58320;48.804;9.252;2023-06-14T02:51:48;9.05;;;5.82;;
70733;SDS011;58320;48.804;9.252;2023-06-14T02:54:13;9.60;;;5.68;;
70733;SDS011;58320;48.804;9.252;2023-06-14T02:56:39;10.57;;;5.83;;
70733;SDS011;58320;48.804;9.252;2023-06-14T02:59:05;8.27;;;6.20;;
70733;SDS011;58320;48.804;9.252;2023-06-14T03:01:34;9.18;;;5.95;;
70733;SDS011;58320;48.804;9.252;2023-06-14T03:04:03;9.40;;;5.72;;
70733;SDS011;58320;48.804;9.252;2023-06-14T03:06:30;8.60;;;6.00;;
70733;SDS011;58320;48.804;9.252;2023-06-14T03:08:59;9.23;;;5.70;;
70733;SDS011;58320;48.804;9.252;2023-06-14T03:11:29;8.95;;;6.20;;
70733;SDS011;58320;48.804;9.252;2023-06-14T03:13:55;10.80;;;6.20;;
70733;SDS011;58320;48.804;9.252;2023-06-14T03:16:22;9.13;;;5.65;;
70733;SDS011;58320;48.804;9.252;2023-06-14T03:18:52;8.37;;;5.90;;
70733;SDS011;58320;48.804;9.252;2023-06-14T03:21:18;11.45;;;5.95;;
70733;SDS011;58320;48.804;9.252;2023-06-14T03:23:45;8.15;;;5.70;;
70733;SDS011;58320;48.804;9.252;2023-06-14T03:26:12;8.82;;;5.60;;
70733;SDS011;58320;48.804;9.252;2023-06-14T03:28:39;12.07;;;5.88;;
70733;SDS011;58320;48.804;9.252;2023-06-14T03:31:06;8.60;;;6.10;;
70733;SDS011;58320;48.804;9.252;2023-06-14T03:33:33;8.82;;;5.90;;
70733;SDS011;58320;48.804;9.252;2023-06-14T03:35:59;8.30;;;5.85;;
70733;SDS011;58320;48.804;9.252;2023-06-14T03:38:26;11.70;;;5.90;;
70733;SDS011;58320;48.804;9.252;2023-06-14T03:40:52;8.97;;;5.80;;
70733;SDS011;58320;48.804;9.252;2023-06-14T03:43:17;9.25;;;5.70;;
70733;SDS011;58320;48.804;9.252;2023-06-14T03:45:43;8.50;;;5.37;;
70733;SDS011;58320;48.804;9.252;2023-06-14T03:48:09;9.32;;;5.93;;
70733;SDS011;58320;48.804;9.252;2023-06-14T03:50:34;12.57;;;5.50;;
70733;SDS011;58320;48.804;9.252;2023-06-14T03:53:03;7.90;;;5.53;;
70733;SDS011;58320;48.804;9.252;2023-06-14T03:55:29;8.60;;;5.60;;
70733;SDS011;58320;48.804;9.252;2023-06-14T03:57:58;8.88;;;5.47;;
70733;SDS011;58320;48.804;9.252;2023-06-14T04:00:24;10.93;;;5.93;;
70733;SDS011;58320;48.804;9.252;2023-06-14T04:02:50;10.38;;;5.80;;
70733;SDS011;58320;48.804;9.252;2023-06-14T04:05:17;8.77;;;5.85;;
70733;SDS011;58320;48.804;9.252;2023-06-14T04:07:44;7.63;;;5.53;;
70733;SDS011;58320;48.804;9.252;2023-06-14T04:10:13;9.23;;;5.27;;
70733;SDS011;58320;48.804;9.252;2023-06-14T04:12:41;9.13;;;5.57;;
70733;SDS011;58320;48.804;9.252;2023-06-14T04:15:07;8.30;;;5.30;;
70733;SDS011;58320;48.804;9.252;2023-06-14T04:17:34;8.25;;;5.00;;
70733;SDS011;58320;48.804;9.252;2023-06-14T04:20:03;8.52;;;5.43;;
70733;SDS011;58320;48.804;9.252;2023-06-14T04:22:32;7.47;;;5.17;;
70733;SDS011;58320;48.804;9.252;2023-06-14T04:24:59;10.65;;;6.05;;
70733;SDS011;58320;48.804;9.252;2023-06-14T04:27:28;9.50;;;6.28;;
70733;SDS011;58320;48.804;9.252;2023-06-14T04:29:56;8.25;;;6.07;;
70733;SDS011;58320;48.804;9.252;2023-06-14T04:32:26;8.27;;;5.43;;
70733;SDS011;58320;48.804;9.252;2023-06-14T04:34:53;9.68;;;6.22;;
70733;SDS011;58320;48.804;9.252;2023-06-14T04:37:20;9.85;;;5.57;;
70733;SDS011;58320;48.804;9.252;2023-06-14T04:39:49;9.38;;;5.85;;
70733;SDS011;58320;48.804;9.252;2023-06-14T04:42:16;8.15;;;5.75;;
70733;SDS011;58320;48.804;9.252;2023-06-14T04:44:45;9.17;;;5.97;;
70733;SDS011;58320;48.804;9.252;2023-06-14T04:47:13;9.10;;;5.60;;
70733;SDS011;58320;48.804;9.252;2023-06-14T04:49:41;7.45;;;5.22;;
70733;SDS011;58320;48.804;9.252;2023-06-14T04:52:07;8.90;;;5.70;;
70733;SDS011;58320;48.804;9.252;2023-06-14T04:54:35;8.70;;;5.90;;
70733;SDS011;58320;48.804;9.252;2023-06-14T04:57:07;10.82;;;5.90;;
70733;SDS011;58320;48.804;9.252;2023-06-14T04:59:34;8.93;;;5.35;;
70733;SDS011;58320;48.804;9.252;2023-06-14T05:02:00;10.55;;;5.70;;
70733;SDS011;58320;48.804;9.252;2023-06-14T05:04:26;10.75;;;5.90;;
70733;SDS011;58320;48.804;9.252;2023-06-14T05:06:53;9.30;;;5.20;;
70733;SDS011;58320;48.804;9.252;2023-06-14T05:09:22;7.97;;;5.28;;
70733;SDS011;58320;48.804;9.252;2023-06-14T05:11:48;9.00;;;5.22;;
70733;SDS011;58320;48.804;9.252;2023-06-14T05:14:15;7.93;;;5.20;;
70733;SDS011;58320;48.804;9.252;2023-06-14T05:16:41;10.90;;;5.97;;
70733;SDS011;58320;48.804;9.252;2023-06-14T05:19:07;8.33;;;5.93;;
70733;SDS011;58320;48.804;9.252;2023-06-14T05:21:35;8.93;;;5.45;;
70733;SDS011;58320;48.804;9.252;2023-06-14T05:24:02;10.65;;;5.65;;
70733;SDS011;58320;48.804;9.252;2023-06-14T05:26:28;14.52;;;6.63;;
70733;SDS011;58320;48.804;9.252;2023-06-14T05:28:55;8.02;;;5.85;;
70733;SDS011;58320;48.804;9.252;2023-06-14T05:31:23;9.70;;;5.30;;
70733;SDS011;58320;48.804;9.252;2023-06-14T05:33:51;8.60;;;5.82;;
70733;SDS011;58320;48.804;9.252;2023-06-14T05:36:17;7.43;;;5.10;;
70733;SDS011;58320;48.804;9.252;2023-06-14T05:38:43;9.05;;;6.22;;
70733;SDS011;58320;48.804;9.252;2023-06-14T05:41:10;9.35;;;6.07;;
70733;SDS011;58320;48.804;9.252;2023-06-14T05:43:36;12.47;;;5.40;;
70733;SDS011;58320;48.804;9.252;2023-06-14T05:46:01;9.32;;;6.30;;
70733;SDS011;58320;48.804;9.252;2023-06-14T05:48:28;9.30;;;5.80;;
70733;SDS011;58320;48.804;9.252;2023-06-14T05:50:55;11.07;;;5.82;;
70733;SDS011;58320;48.804;9.252;2023-06-14T05:53:21;7.10;;;4.90;;
70733;SDS011;58320;48.804;9.252;2023-06-14T05:55:47;8.38;;;5.43;;
70733;SDS011;58320;48.804;9.252;2023-06-14T05:58:14;10.83;;;5.53;;
70733;SDS011;58320;48.804;9.252;2023-06-14T06:00:40;9.82;;;6.15;;
70733;SDS011;58320;48.804;9.252;2023-06-14T06:03:05;8.20;;;5.72;;
70733;SDS011;58320;48.804;9.252;2023-06-14T06:05:36;10.60;;;5.97;;
70733;SDS011;58320;48.804;9.252;2023-06-14T06:08:02;8.63;;;6.07;;
70733;SDS011;58320;48.804;9.252;2023-06-14T06:10:28;7.72;;;5.28;;
70733;SDS011;58320;48.804;9.252;2023-06-14T06:12:53;7.33;;;5.53;;
70733;SDS011;58320;48.804;9.252;2023-06-14T06:15:19;9.52;;;6.13;;
70733;SDS011;58320;48.804;9.252;2023-06-14T06:17:45;7.95;;;5.60;;
70733;SDS011;58320;48.804;9.252;2023-06-14T06:20:11;9.02;;;5.80;;
70733;SDS011;58320;48.804;9.252;2023-06-14T06:22:37;7.67;;;5.57;;
70733;SDS011;58320;48.804;9.252;2023-06-14T06:25:04;7.93;;;5.70;;
70733;SDS011;58320;48.804;9.252;2023-06-14T06:27:31;8.00;;;5.47;;
70733;SDS011;58320;48.804;9.252;2023-06-14T06:29:57;8.80;;;5.90;;
70733;SDS011;58320;48.804;9.252;2023-06-14T06:32:23;7.70;;;5.57;;
70733;SDS011;58320;48.804;9.252;2023-06-14T06:34:49;7.43;;;5.20;;
70733;SDS011;58320;48.804;9.252;2023-06-14T06:37:16;8.38;;;5.43;;
70733;SDS011;58320;48.804;9.252;2023-06-14T06:39:42;13.07;;;5.67;;
70733;SDS011;58320;48.804;9.252;2023-06-14T06:42:08;7.60;;;5.60;;
70733;SDS011;58320;48.804;9.252;2023-06-14T06:44:34;10.75;;;5.68;;
70733;SDS011;58320;48.804;9.252;2023-06-14T06:47:00;8.67;;;5.67;;
70733;SDS011;58320;48.804;9.252;2023-06-14T06:49:25;8.32;;;5.20;;
70733;SDS011;58320;48.804;9.252;2023-06-14T06:52:01;7.55;;;5.35;;
70733;SDS011;58320;48.804;9.252;2023-06-14T06:54:29;7.60;;;4.93;;
70733;SDS011;58320;48.804;9.252;2023-06-14T06:56:55;7.77;;;5.30;;
70733;SDS011;58320;48.804;9.252;2023-06-14T06:59:21;8.88;;;5.15;;
70733;SDS011;58320;48.804;9.252;2023-06-14T07:01:47;7.40;;;5.10;;
70733;SDS011;58320;48.804;9.252;2023-06-14T07:04:13;6.45;;;4.90;;
70733;SDS011;58320;48.804;9.252;2023-06-14T07:06:39;9.73;;;5.17;;
70733;SDS011;58320;48.804;9.252;2023-06-14T07:09:05;9.52;;;4.97;;
70733;SDS011;58320;48.804;9.252;2023-06-14T07:11:33;8.45;;;4.90;;
70733;SDS011;58320;48.804;9.252;2023-06-14T07:13:59;9.27;;;5.40;;
70733;SDS011;58320;48.804;9.252;2023-06-14T07:16:25;7.60;;;5.20;;
70733;SDS011;58320;48.804;9.252;2023-06-14T07:18:51;7.72;;;5.10;;
70733;SDS011;58320;48.804;9.252;2023-06-14T07:21:17;11.48;;;5.15;;
70733;SDS011;58320;48.804;9.252;2023-06-14T07:23:43;10.13;;;5.22;;
70733;SDS011;58320;48.804;9.252;2023-06-14T07:26:09;6.50;;;4.87;;
70733;SDS011;58320;48.804;9.252;2023-06-14T07:28:35;7.63;;;5.07;;
70733;SDS011;58320;48.804;9.252;2023-06-14T07:31:01;8.10;;;5.55;;
70733;SDS011;58320;48.804;9.252;2023-06-14T07:33:27;10.90;;;5.32;;
70733;SDS011;58320;48.804;9.252;2023-06-14T07:35:53;9.03;;;5.30;;
70733;SDS011;58320;48.804;9.252;2023-06-14T07:38:19;8.02;;;4.85;;
70733;SDS011;58320;48.804;9.252;2023-06-14T07:40:45;7.40;;;5.27;;
70733;SDS011;58320;48.804;9.252;2023-06-14T07:43:10;8.70;;;5.45;;
70733;SDS011;58320;48.804;9.252;2023-06-14T07:45:36;7.88;;;5.32;;
70733;SDS011;58320;48.804;9.252;2023-06-14T07:48:03;9.00;;;6.00;;
70733;SDS011;58320;48.804;9.252;2023-06-14T07:50:30;8.53;;;5.17;;
70733;SDS011;58320;48.804;9.252;2023-06-14T07:52:56;7.13;;;5.10;;
70733;SDS011;58320;48.804;9.252;2023-06-14T07:55:21;9.30;;;5.25;;
70733;SDS011;58320;48.804;9.252;2023-06-14T07:57:47;8.65;;;5.00;;
70733;SDS011;58320;48.804;9.252;2023-06-14T08:00:13;7.70;;;4.70;;
70733;SDS011;58320;48.804;9.252;2023-06-14T08:02:43;7.97;;;5.00;;
70733;SDS011;58320;48.804;9.252;2023-06-14T08:05:11;8.18;;;5.30;;
70733;SDS011;58320;48.804;9.252;2023-06-14T08:07:37;6.97;;;5.40;;
70733;SDS011;58320;48.804;9.252;2023-06-14T08:10:05;10.60;;;5.47;;
70733;SDS011;58320;48.804;9.252;2023-06-14T08:12:31;7.45;;;4.97;;
70733;SDS011;58320;48.804;9.252;2023-06-14T08:14:58;7.32;;;5.00;;
70733;SDS011;58320;48.804;9.252;2023-06-14T08:17:24;9.35;;;4.82;;
70733;SDS011;58320;48.804;9.252;2023-06-14T08:19:50;8.23;;;4.85;;
70733;SDS011;58320;48.804;9.252;2023-06-14T08:22:16;9.07;;;5.60;;
70733;SDS011;58320;48.804;9.252;2023-06-14T08:24:43;9.70;;;4.80;;
70733;SDS011;58320;48.804;9.252;2023-06-14T08:27:09;7.53;;;4.60;;
70733;SDS011;58320;48.804;9.252;2023-06-14T08:29:35;9.60;;;5.07;;
70733;SDS011;58320;48.804;9.252;2023-06-14T08:32:03;7.53;;;5.03;;
70733;SDS011;58320;48.804;9.252;2023-06-14T08:34:29;8.13;;;4.88;;
70733;SDS011;58320;48.804;9.252;2023-06-14T08:36:55;7.67;;;5.20;;
70733;SDS011;58320;48.804;9.252;2023-06-14T08:39:21;8.52;;;5.20;;
70733;SDS011;58320;48.804;9.252;2023-06-14T08:41:47;8.03;;;4.93;;
70733;SDS011;58320;48.804;9.252;2023-06-14T08:44:15;8.05;;;5.07;;
70733;SDS011;58320;48.804;9.252;2023-06-14T08:46:44;7.78;;;5.10;;
70733;SDS011;58320;48.804;9.252;2023-06-14T08:49:12;10.85;;;5.80;;
70733;SDS011;58320;48.804;9.252;2023-06-14T08:51:41;9.30;;;4.85;;
70733;SDS011;58320;48.804;9.252;2023-06-14T08:54:08;7.20;;;5.32;;
70733;SDS011;58320;48.804;9.252;2023-06-14T08:56:37;8.30;;;5.40;;
70733;SDS011;58320;48.804;9.252;2023-06-14T08:59:04;7.20;;;5.20;;
70733;SDS011;58320;48.804;9.252;2023-06-14T09:01:34;7.55;;;4.82;;
70733;SDS011;58320;48.804;9.252;2023-06-14T09:04:02;8.63;;;5.03;;
70733;SDS011;58320;48.804;9.252;2023-06-14T09:06:30;9.35;;;4.40;;
70733;SDS011;58320;48.804;9.252;2023-06-14T09:08:57;7.65;;;4.70;;
70733;SDS011;58320;48.804;9.252;2023-06-14T09:11:23;8.37;;;4.60;;
70733;SDS011;58320;48.804;9.252;2023-06-14T09:13:51;5.80;;;4.53;;
70733;SDS011;58320;48.804;9.252;2023-06-14T09:16:16;8.93;;;4.78;;
70733;SDS011;58320;48.804;9.252;2023-06-14T09:18:45;8.07;;;4.87;;
70733;SDS011;58320;48.804;9.252;2023-06-14T09:21:15;8.68;;;4.80;;
70733;SDS011;58320;48.804;9.252;2023-06-14T09:23:46;9.10;;;5.00;;
70733;SDS011;58320;48.804;9.252;2023-06-14T09:28:41;9.20;;;4.40;;
70733;SDS011;58320;48.804;9.252;2023-06-14T09:31:14;6.60;;;4.80;;
70733;SDS011;58320;48.804;9.252;2023-06-14T09:33:46;6.27;;;4.63;;
70733;SDS011;58320;48.804;9.252;2023-06-14T09:36:17;7.47;;;4.50;;
70733;SDS011;58320;48.804;9.252;2023-06-14T09:39:01;7.13;;;4.70;;
70733;SDS011;58320;48.804;9.252;2023-06-14T09:41:35;5.72;;;4.40;;
70733;SDS011;58320;48.804;9.252;2023-06-14T09:44:06;8.38;;;4.45;;
70733;SDS011;58320;48.804;9.252;2023-06-14T09:46:33;7.65;;;4.43;;
70733;SDS011;58320;48.804;9.252;2023-06-14T09:49:01;8.53;;;4.43;;
70733;SDS011;58320;48.804;9.252;2023-06-14T09:51:28;6.43;;;4.30;;
70733;SDS011;58320;48.804;9.252;2023-06-14T09:54:01;5.95;;;4.13;;
70733;SDS011;58320;48.804;9.252;2023-06-14T09:56:35;7.45;;;4.30;;
70733;SDS011;58320;48.804;9.252;2023-06-14T09:59:06;6.63;;;4.40;;
70733;SDS011;58320;48.804;9.252;2023-06-14T10:01:35;10.38;;;4.47;;
70733;SDS011;58320;48.804;9.252;2023-06-14T10:04:07;8.67;;;4.57;;
70733;SDS011;58320;48.804;9.252;2023-06-14T10:06:39;7.20;;;4.20;;
70733;SDS011;58320;48.804;9.252;2023-06-14T10:09:07;7.47;;;4.18;;
70733;SDS011;58320;48.804;9.252;2023-06-14T10:11:35;8.38;;;3.83;;
70733;SDS011;58320;48.804;9.252;2023-06-14T10:14:06;6.22;;;4.30;;
70733;SDS011;58320;48.804;9.252;2023-06-14T10:16:34;10.35;;;3.60;;
70733;SDS011;58320;48.804;9.252;2023-06-14T10:20:10;7.53;;;4.10;;
70733;SDS011;58320;48.804;9.252;2023-06-14T10:22:26;5.93;;;3.93;;
70733;SDS011;58320;48.804;9.252;2023-06-14T10:24:57;6.67;;;4.43;;
70733;SDS011;58320;48.804;9.252;2023-06-14T10:27:24;6.53;;;4.10;;
70733;SDS011;58320;48.804;9.252;2023-06-14T10:32:27;7.65;;;4.20;;
70733;SDS011;58320;48.804;9.252;2023-06-14T10:34:55;6.40;;;3.97;;
70733;SDS011;58320;48.804;9.252;2023-06-14T10:37:29;11.00;;;4.75;;
70733;SDS011;58320;48.804;9.252;2023-06-14T10:39:55;7.80;;;4.20;;
70733;SDS011;58320;48.804;9.252;2023-06-14T10:42:21;7.65;;;4.00;;
70733;SDS011;58320;48.804;9.252;2023-06-14T10:44:51;8.60;;;4.32;;
70733;SDS011;58320;48.804;9.252;2023-06-14T10:52:40;7.88;;;4.28;;
70733;SDS011;58320;48.804;9.252;2023-06-14T10:57:43;6.57;;;4.37;;
70733;SDS011;58320;48.804;9.252;2023-06-14T11:00:13;5.60;;;4.07;;
70733;SDS011;58320;48.804;9.252;2023-06-14T11:05:49;6.63;;;4.22;;
70733;SDS011;58320;48.804;9.252;2023-06-14T11:11:33;5.60;;;4.10;;
70733;SDS011;58320;48.804;9.252;2023-06-14T11:14:00;8.05;;;4.53;;
70733;SDS011;58320;48.804;9.252;2023-06-14T11:16:27;8.10;;;4.50;;
70733;SDS011;58320;48.804;9.252;2023-06-14T11:18:53;6.93;;;4.23;;
70733;SDS011;58320;48.804;9.252;2023-06-14T11:21:20;7.72;;;4.32;;
70733;SDS011;58320;48.804;9.252;2023-06-14T11:23:49;7.05;;;4.20;;
70733;SDS011;58320;48.804;9.252;2023-06-14T11:26:24;8.23;;;3.97;;
70733;SDS011;58320;48.804;9.252;2023-06-14T11:28:55;6.18;;;3.85;;
70733;SDS011;58320;48.804;9.252;2023-06-14T11:31:22;5.93;;;3.85;;
70733;SDS011;58320;48.804;9.252;2023-06-14T11:33:49;5.53;;;4.00;;
70733;SDS011;58320;48.804;9.252;2023-06-14T11:36:15;6.37;;;4.30;;
70733;SDS011;58320;48.804;9.252;2023-06-14T11:38:41;5.50;;;4.13;;
70733;SDS011;58320;48.804;9.252;2023-06-14T11:41:07;7.43;;;3.85;;
70733;SDS011;58320;48.804;9.252;2023-06-14T11:43:33;6.00;;;3.63;;
70733;SDS011;58320;48.804;9.252;2023-06-14T11:46:00;6.10;;;4.27;;
70733;SDS011;58320;48.804;9.252;2023-06-14T11:48:40;7.27;;;3.90;;
70733;SDS011;58320;48.804;9.252;2023-06-14T11:51:07;6.57;;;3.90;;
70733;SDS011;58320;48.804;9.252;2023-06-14T11:53:33;6.78;;;4.15;;
70733;SDS011;58320;48.804;9.252;2023-06-14T11:55:59;7.85;;;3.65;;
70733;SDS011;58320;48.804;9.252;2023-06-14T11:58:26;5.90;;;3.90;;
70733;SDS011;58320;48.804;9.252;2023-06-14T12:00:52;5.90;;;3.75;;
70733;SDS011;58320;48.804;9.252;2023-06-14T12:03:22;8.52;;;4.38;;
70733;SDS011;58320;48.804;9.252;2023-06-14T12:05:50;5.53;;;3.40;;
70733;SDS011;58320;48.804;9.252;2023-06-14T12:08:32;6.60;;;3.60;;
70733;SDS011;58320;48.804;9.252;2023-06-14T12:11:12;5.72;;;3.22;;
70733;SDS011;58320;48.804;9.252;2023-06-14T12:13:42;5.35;;;3.90;;
70733;SDS011;58320;48.804;9.252;2023-06-14T12:16:08;5.63;;;3.78;;
70733;SDS011;58320;48.804;9.252;2023-06-14T12:18:35;5.75;;;4.03;;
70733;SDS011;58320;48.804;9.252;2023-06-14T12:21:06;6.18;;;3.92;;
70733;SDS011;58320;48.804;9.252;2023-06-14T12:26:14;8.60;;;3.60;;
70733;SDS011;58320;48.804;9.252;2023-06-14T12:28:44;5.60;;;3.90;;
70733;SDS011;58320;48.804;9.252;2023-06-14T12:31:11;6.13;;;4.00;;
70733;SDS011;58320;48.804;9.252;2023-06-14T12:33:39;5.17;;;3.80;;
70733;SDS011;58320;48.804;9.252;2023-06-14T12:36:06;5.35;;;3.70;;
70733;SDS011;58320;48.804;9.252;2023-06-14T12:38:34;6.65;;;3.83;;
70733;SDS011;58320;48.804;9.252;2023-06-14T12:41:00;6.40;;;3.45;;
70733;SDS011;58320;48.804;9.252;2023-06-14T12:43:26;5.70;;;3.72;;
70733;SDS011;58320;48.804;9.252;2023-06-14T12:45:52;7.03;;;4.28;;
70733;SDS011;58320;48.804;9.252;2023-06-14T12:48:18;6.43;;;3.93;;
70733;SDS011;58320;48.804;9.252;2023-06-14T12:50:45;7.43;;;3.83;;
70733;SDS011;58320;48.804;9.252;2023-06-14T12:53:12;6.82;;;4.10;;
70733;SDS011;58320;48.804;9.252;2023-06-14T12:55:38;8.50;;;3.88;;
70733;SDS011;58320;48.804;9.252;2023-06-14T12:58:04;5.47;;;3.85;;
70733;SDS011;58320;48.804;9.252;2023-06-14T13:00:29;9.90;;;3.83;;
70733;SDS011;58320;48.804;9.252;2023-06-14T13:02:56;5.32;;;3.55;;
70733;SDS011;58320;48.804;9.252;2023-06-14T13:05:22;7.60;;;3.85;;
70733;SDS011;58320;48.804;9.252;2023-06-14T13:07:49;6.22;;;3.70;;
70733;SDS011;58320;48.804;9.252;2023-06-14T13:10:16;7.97;;;4.10;;
70733;SDS011;58320;48.804;9.252;2023-06-14T13:12:42;8.48;;;3.90;;
70733;SDS011;58320;48.804;9.252;2023-06-14T13:15:08;5.53;;;3.33;;
70733;SDS011;58320;48.804;9.252;2023-06-14T13:17:35;6.50;;;3.80;;
70733;SDS011;58320;48.804;9.252;2023-06-14T13:20:07;5.82;;;3.60;;
70733;SDS011;58320;48.804;9.252;2023-06-14T13:22:34;7.93;;;3.92;;
70733;SDS011;58320;48.804;9.252;2023-06-14T13:25:00;5.55;;;3.80;;
70733;SDS011;58320;48.804;9.252;2023-06-14T13:27:27;7.65;;;3.78;;
70733;SDS011;58320;48.804;9.252;2023-06-14T13:29:53;7.28;;;3.92;;
70733;SDS011;58320;48.804;9.252;2023-06-14T13:32:22;6.78;;;3.58;;
70733;SDS011;58320;48.804;9.252;2023-06-14T13:34:48;7.30;;;3.53;;
70733;SDS011;58320;48.804;9.252;2023-06-14T13:37:14;8.10;;;4.00;;
70733;SDS011;58320;48.804;9.252;2023-06-14T13:39:41;7.15;;;4.00;;
70733;SDS011;58320;48.804;9.252;2023-06-14T13:42:06;8.45;;;3.83;;
70733;SDS011;58320;48.804;9.252;2023-06-14T13:44:33;7.60;;;3.50;;
70733;SDS011;58320;48.804;9.252;2023-06-14T13:46:59;7.10;;;3.60;;
70733;SDS011;58320;48.804;9.252;2023-06-14T13:49:25;5.72;;;3.50;;
70733;SDS011;58320;48.804;9.252;2023-06-14T13:51:51;7.80;;;3.83;;
70733;SDS011;58320;48.804;9.252;2023-06-14T13:54:19;5.67;;;3.70;;
70733;SDS011;58320;48.804;9.252;2023-06-14T13:56:46;7.63;;;3.53;;
70733;SDS011;58320;48.804;9.252;2023-06-14T13:59:12;7.50;;;3.90;;
70733;SDS011;58320;48.804;9.252;2023-06-14T14:01:38;6.20;;;3.80;;
70733;SDS011;58320;48.804;9.252;2023-06-14T14:04:04;5.82;;;3.97;;
70733;SDS011;58320;48.804;9.252;2023-06-14T14:06:30;5.73;;;3.87;;
70733;SDS011;58320;48.804;9.252;2023-06-14T14:08:57;5.43;;;3.85;;
70733;SDS011;58320;48.804;9.252;2023-06-14T14:11:24;6.10;;;3.40;;
70733;SDS011;58320;48.804;9.252;2023-06-14T14:13:50;7.45;;;4.15;;
70733;SDS011;58320;48.804;9.252;2023-06-14T14:16:16;6.30;;;4.03;;
70733;SDS011;58320;48.804;9.252;2023-06-14T14:18:42;6.60;;;3.90;;
70733;SDS011;58320;48.804;9.252;2023-06-14T14:21:07;7.47;;;4.10;;
70733;SDS011;58320;48.804;9.252;2023-06-14T14:23:34;9.77;;;4.65;;
70733;SDS011;58320;48.804;9.252;2023-06-14T14:26:01;6.60;;;4.07;;
70733;SDS011;58320;48.804;9.252;2023-06-14T14:28:29;6.78;;;4.05;;
70733;SDS011;58320;48.804;9.252;2023-06-14T14:30:56;5.93;;;3.92;;
70733;SDS011;58320;48.804;9.252;2023-06-14T14:33:22;4.78;;;3.35;;
70733;SDS011;58320;48.804;9.252;2023-06-14T14:35:47;5.03;;;3.80;;
70733;SDS011;58320;48.804;9.252;2023-06-14T14:38:13;6.88;;;3.50;;
70733;SDS011;58320;48.804;9.252;2023-06-14T14:40:43;5.07;;;3.80;;
70733;SDS011;58320;48.804;9.252;2023-06-14T14:43:09;7.32;;;3.50;;
70733;SDS011;58320;48.804;9.252;2023-06-14T14:45:36;5.47;;;3.90;;
70733;SDS011;58320;48.804;9.252;2023-06-14T14:48:02;6.50;;;3.50;;
70733;SDS011;58320;48.804;9.252;2023-06-14T14:50:28;4.73;;;3.60;;
70733;SDS011;58320;48.804;9.252;2023-06-14T14:52:54;4.75;;;3.60;;
70733;SDS011;58320;48.804;9.252;2023-06-14T14:55:21;5.32;;;3.55;;
70733;SDS011;58320;48.804;9.252;2023-06-14T14:57:47;5.82;;;3.55;;
70733;SDS011;58320;48.804;9.252;2023-06-14T15:00:13;5.87;;;3.63;;
70733;SDS011;58320;48.804;9.252;2023-06-14T15:02:39;5.40;;;3.83;;
70733;SDS011;58320;48.804;9.252;2023-06-14T15:05:05;8.70;;;3.92;;
70733;SDS011;58320;48.804;9.252;2023-06-14T15:07:31;5.38;;;3.70;;
70733;SDS011;58320;48.804;9.252;2023-06-14T15:09:58;5.45;;;3.53;;
70733;SDS011;58320;48.804;9.252;2023-06-14T15:12:25;6.72;;;3.72;;
70733;SDS011;58320;48.804;9.252;2023-06-14T15:14:51;6.65;;;3.70;;